Summerland, South Carolina
Current Conditions -  °F | °C
As of 10:15 AM on Monday 24 Nov 2014 (Local Time) from KAIK Reporting Station
Overcast Overcast  
Wind Chill: 68°   Ceiling: 700
Heat Index: 68°   Visibility: 10mi
Dew Point: 68°   Wind: 7mph
Humidity: 100%   Direction: 200°SSW
Pressure: 29.88"   Gusts: NA
Location:  33.9549°N, 81.564°W
Report Text: KAIK 241515Z AUTO 20006KT 10SM BKN007 OVC013 20/20 A2988 RMK AO2 PNO
Loading
Personal Weather Stations






























Interactive Weather Map New forecast layout! Learn more

10-Day Weather Forecast

Advertisements
Track Severe Weather on mobile